createdAt,value
2018-12-13T00:00:17.612Z,4.23
2018-12-13T00:02:45.587Z,3.27
2018-12-13T00:05:13.540Z,3.27
2018-12-13T00:07:41.500Z,2.90
2018-12-13T00:10:09.612Z,3.37
2018-12-13T00:12:37.568Z,2.70
2018-12-13T00:15:05.506Z,3.23
2018-12-13T00:17:33.613Z,3.43
2018-12-13T00:20:01.551Z,2.70
2018-12-13T00:22:29.516Z,2.70
2018-12-13T00:24:57.505Z,2.43
2018-12-13T00:27:25.449Z,2.33
2018-12-13T00:29:53.395Z,2.27
2018-12-13T00:32:21.457Z,2.43
2018-12-13T00:34:49.425Z,2.30
2018-12-13T00:37:17.384Z,2.80
2018-12-13T00:39:45.356Z,2.67
2018-12-13T00:42:13.320Z,2.07
2018-12-13T00:44:41.282Z,2.20
2018-12-13T00:47:09.360Z,2.07
2018-12-13T00:49:37.299Z,2.03
2018-12-13T00:52:05.263Z,2.37
2018-12-13T00:54:33.331Z,1.83
2018-12-13T00:57:01.372Z,1.80
2018-12-13T00:59:29.313Z,2.23
2018-12-13T01:01:57.460Z,2.13
2018-12-13T01:04:25.419Z,1.80
2018-12-13T01:06:53.420Z,1.70
2018-12-13T01:09:21.481Z,1.70
2018-12-13T01:11:49.437Z,1.60
2018-12-13T01:14:17.400Z,1.60
2018-12-13T01:16:45.452Z,1.70
2018-12-13T01:19:13.408Z,1.60
2018-12-13T01:21:41.363Z,1.47
2018-12-13T01:24:09.354Z,1.80
2018-12-13T01:26:37.304Z,2.23
2018-12-13T01:29:05.261Z,1.53
2018-12-13T01:31:33.247Z,1.87
2018-12-13T01:34:01.201Z,1.80
2018-12-13T01:36:29.221Z,1.60
2018-12-13T01:38:57.293Z,1.63
2018-12-13T01:41:25.244Z,1.90
2018-12-13T01:43:53.205Z,1.70
2018-12-13T01:46:21.197Z,1.87
2018-12-13T01:48:49.157Z,1.73
2018-12-13T01:51:17.111Z,2.10
2018-12-13T01:53:45.184Z,2.00
2018-12-13T01:56:13.132Z,2.53
2018-12-13T01:58:41.067Z,1.93
2018-12-13T02:01:09.136Z,2.40
2018-12-13T02:03:37.096Z,2.27
2018-12-13T02:06:05.050Z,2.17
2018-12-13T02:08:33.110Z,2.60
2018-12-13T02:11:01.052Z,2.23
2018-12-13T02:13:29.005Z,2.40
2018-12-13T02:15:56.992Z,2.27
2018-12-13T02:18:24.944Z,2.37
2018-12-13T02:20:52.904Z,2.60
2018-12-13T02:23:20.873Z,2.57
2018-12-13T02:25:48.927Z,2.57
2018-12-13T02:28:17.033Z,2.13
2018-12-13T02:30:45.081Z,2.60
2018-12-13T02:33:13.170Z,2.53
2018-12-13T02:35:41.197Z,2.60
2018-12-13T02:38:09.247Z,2.60
2018-12-13T02:40:37.248Z,2.73
2018-12-13T02:43:05.208Z,2.70
2018-12-13T02:45:33.329Z,3.00
2018-12-13T02:48:01.293Z,2.57
2018-12-13T02:50:29.247Z,2.53
2018-12-13T02:52:57.313Z,2.77
2018-12-13T02:55:25.268Z,2.83
2018-12-13T02:57:53.217Z,3.00
2018-12-13T03:00:21.192Z,3.00
2018-12-13T03:02:51.214Z,2.60
2018-12-13T03:05:19.253Z,2.37
2018-12-13T03:07:47.361Z,2.80
2018-12-13T03:10:15.313Z,2.80
2018-12-13T03:12:43.277Z,2.70
2018-12-13T03:15:11.350Z,2.70
2018-12-13T03:17:39.293Z,2.63
2018-12-13T03:20:07.385Z,2.83
2018-12-13T03:22:35.443Z,2.80
2018-12-13T03:25:04.176Z,2.80
2018-12-13T03:27:32.231Z,2.97
2018-12-13T03:30:00.321Z,2.80
2018-12-13T03:32:28.321Z,3.00
2018-12-13T03:34:56.285Z,3.17
2018-12-13T03:37:24.265Z,2.80
2018-12-13T03:39:52.225Z,2.70
2018-12-13T03:42:20.176Z,3.00
2018-12-13T03:44:48.335Z,3.10
2018-12-13T03:47:16.454Z,2.90
2018-12-13T03:49:44.466Z,2.93
2018-12-13T03:52:12.520Z,3.20
2018-12-13T03:54:40.533Z,3.27
2018-12-13T03:57:08.494Z,2.87
2018-12-13T03:59:36.684Z,2.70
2018-12-13T04:02:04.650Z,2.83
2018-12-13T04:04:32.603Z,2.83
2018-12-13T04:07:00.601Z,2.80
2018-12-13T04:09:28.588Z,2.40
2018-12-13T04:11:56.532Z,2.33
2018-12-13T04:14:24.564Z,2.97
2018-12-13T04:16:52.759Z,1.90
2018-12-13T04:19:20.705Z,2.40
2018-12-13T04:21:48.767Z,2.10
2018-12-13T04:24:16.735Z,1.70
2018-12-13T04:26:44.684Z,1.50
2018-12-13T04:29:12.752Z,1.90
2018-12-13T04:31:40.704Z,2.07
2018-12-13T04:34:08.665Z,1.70
2018-12-13T04:36:36.649Z,1.80
2018-12-13T04:39:05.434Z,1.70
2018-12-13T04:41:33.400Z,1.87
2018-12-13T04:44:01.461Z,1.90
2018-12-13T04:46:29.423Z,1.80
2018-12-13T04:48:57.372Z,1.50
2018-12-13T04:51:25.446Z,1.50
2018-12-13T04:53:53.397Z,2.00
2018-12-13T04:56:21.350Z,1.40
2018-12-13T04:58:49.333Z,1.27
2018-12-13T05:01:17.330Z,1.40
2018-12-13T05:03:45.273Z,1.60
2018-12-13T05:06:13.341Z,1.83
2018-12-13T05:08:41.300Z,1.30
2018-12-13T05:11:09.253Z,1.67
2018-12-13T05:13:37.334Z,2.10
2018-12-13T05:16:05.279Z,1.50
2018-12-13T05:18:33.219Z,1.47
2018-12-13T05:21:01.284Z,1.40
2018-12-13T05:23:29.235Z,1.37
2018-12-13T05:25:57.202Z,1.60
2018-12-13T05:28:25.184Z,1.67
2018-12-13T05:30:53.135Z,1.40
2018-12-13T05:33:21.091Z,1.80
2018-12-13T05:35:49.073Z,1.30
2018-12-13T05:38:17.120Z,1.53
2018-12-13T05:40:45.072Z,1.60
2018-12-13T05:43:13.064Z,1.70
2018-12-13T05:45:41.012Z,1.80
2018-12-13T05:48:10.398Z,1.90
2018-12-13T05:50:42.304Z,2.13
2018-12-13T05:53:10.270Z,1.80
2018-12-13T05:55:38.272Z,2.10
2018-12-13T05:58:06.333Z,2.03
2018-12-13T06:00:34.286Z,1.90
2018-12-13T06:03:02.379Z,2.10
2018-12-13T06:05:30.378Z,2.30
2018-12-13T06:07:58.338Z,2.27
2018-12-13T06:10:26.392Z,2.27
2018-12-13T06:12:54.454Z,2.50
2018-12-13T06:15:22.397Z,2.90
2018-12-13T06:17:50.343Z,2.43
2018-12-13T06:20:18.336Z,2.70
2018-12-13T06:22:46.276Z,2.70
2018-12-13T06:25:14.229Z,3.00
2018-12-13T06:27:42.221Z,2.80
2018-12-13T06:30:10.216Z,3.43
2018-12-13T06:32:38.233Z,2.93
2018-12-13T06:35:06.289Z,3.50
2018-12-13T06:37:34.244Z,4.27
2018-12-13T06:40:02.200Z,2.90
2018-12-13T06:42:30.264Z,3.30
2018-12-13T06:44:58.209Z,2.97
2018-12-13T06:47:26.208Z,2.97
2018-12-13T06:49:54.173Z,3.00
2018-12-13T06:52:22.218Z,3.40
2018-12-13T06:54:50.167Z,3.20
2018-12-13T06:57:18.145Z,3.30
2018-12-13T06:59:46.157Z,3.27
2018-12-13T07:02:14.117Z,3.07
2018-12-13T07:04:42.202Z,3.43
2018-12-13T07:07:10.204Z,3.40
2018-12-13T07:09:38.161Z,3.90
2018-12-13T07:12:06.220Z,3.47
2018-12-13T07:14:34.264Z,3.77
2018-12-13T07:17:02.356Z,4.03
2018-12-13T07:19:30.513Z,3.73
2018-12-13T07:21:58.591Z,4.23
2018-12-13T07:24:26.548Z,4.20
2018-12-13T07:26:54.733Z,3.77
2018-12-13T07:29:22.796Z,3.60
2018-12-13T07:31:55.792Z,4.07
2018-12-13T07:34:23.749Z,4.00
2018-12-13T07:36:51.717Z,3.53
2018-12-13T07:39:19.772Z,3.80
2018-12-13T07:41:47.732Z,4.03
2018-12-13T07:44:15.681Z,3.60
2018-12-13T07:46:43.677Z,3.27
2018-12-13T07:49:11.721Z,3.80
2018-12-13T07:51:39.672Z,3.80
2018-12-13T07:54:07.836Z,3.50
2018-12-13T07:56:35.910Z,3.57
2018-12-13T07:59:03.916Z,3.93
2018-12-13T08:01:32.648Z,4.03
2018-12-13T08:04:00.647Z,4.03
2018-12-13T08:06:28.702Z,3.50
2018-12-13T08:08:56.671Z,4.03
2018-12-13T08:11:24.714Z,3.43
2018-12-13T08:13:52.688Z,3.40
2018-12-13T08:16:20.773Z,3.00
2018-12-13T08:18:48.796Z,3.47
2018-12-13T08:21:16.771Z,3.57
2018-12-13T08:23:44.893Z,3.20
2018-12-13T08:26:12.901Z,3.27
2018-12-13T08:28:40.948Z,3.20
2018-12-13T08:31:09.025Z,3.20
2018-12-13T08:33:37.072Z,2.60
2018-12-13T08:36:05.157Z,2.83
2018-12-13T08:38:33.326Z,2.60
2018-12-13T08:41:01.409Z,2.97
2018-12-13T08:43:29.452Z,2.77
2018-12-13T08:45:57.549Z,2.60
2018-12-13T08:48:25.504Z,2.70
2018-12-13T08:50:54.282Z,2.87
2018-12-13T08:53:22.569Z,2.83
2018-12-13T08:55:50.747Z,2.47
2018-12-13T08:58:18.784Z,2.77
2018-12-13T09:00:46.900Z,2.60
2018-12-13T09:03:14.861Z,2.40
2018-12-13T09:05:42.853Z,2.43
2018-12-13T09:08:10.923Z,2.40
2018-12-13T09:10:38.967Z,2.47
2018-12-13T09:13:07.090Z,2.40
2018-12-13T09:15:35.160Z,2.67
2018-12-13T09:18:03.147Z,4.00
2018-12-13T09:20:31.250Z,4.63
2018-12-13T09:22:59.233Z,4.83
2018-12-13T09:25:27.517Z,5.20
2018-12-13T09:27:55.552Z,4.87
2018-12-13T09:30:23.675Z,4.73
2018-12-13T09:32:51.721Z,5.20
2018-12-13T09:35:19.813Z,4.70
2018-12-13T09:37:47.930Z,5.13
2018-12-13T09:40:16.054Z,5.03
2018-12-13T09:42:44.024Z,4.53
2018-12-13T09:45:11.991Z,4.43
2018-12-13T09:47:39.980Z,4.57
2018-12-13T09:50:08.047Z,4.87
2018-12-13T09:52:36.045Z,4.10
2018-12-13T09:55:05.785Z,4.07
2018-12-13T09:57:33.993Z,3.73
2018-12-13T10:00:02.217Z,4.23
2018-12-13T10:02:30.241Z,3.90
2018-12-13T10:04:58.201Z,4.00
2018-12-13T10:07:26.227Z,3.73
2018-12-13T10:09:54.176Z,2.40
2018-12-13T10:12:22.130Z,1.70
2018-12-13T10:14:50.116Z,1.57
2018-12-13T10:17:18.113Z,1.70
2018-12-13T10:19:46.086Z,1.77
2018-12-13T10:22:14.066Z,1.80
2018-12-13T10:24:42.122Z,1.60
2018-12-13T10:27:10.080Z,1.67
2018-12-13T10:29:38.323Z,1.90
2018-12-13T10:32:06.275Z,1.60
2018-12-13T10:34:34.350Z,1.80
2018-12-13T10:37:02.419Z,1.83
2018-12-13T10:39:30.397Z,1.80
2018-12-13T10:41:58.359Z,1.67
2018-12-13T10:44:32.187Z,1.70
2018-12-13T10:47:00.224Z,2.73
2018-12-13T10:49:28.173Z,2.87
2018-12-13T10:51:56.240Z,2.90
2018-12-13T10:54:24.198Z,3.63
2018-12-13T10:56:52.246Z,3.40
2018-12-13T10:59:20.236Z,3.60
2018-12-13T11:01:53.910Z,3.17
2018-12-13T11:04:21.915Z,3.37
2018-12-13T11:06:49.944Z,2.77
2018-12-13T11:09:17.896Z,3.23
2018-12-13T11:11:46.997Z,2.93
2018-12-13T11:14:15.076Z,3.17
2018-12-13T11:16:43.165Z,3.20
2018-12-13T11:19:11.412Z,3.00
2018-12-13T11:21:39.484Z,3.47
2018-12-13T11:24:07.521Z,3.37
2018-12-13T11:26:35.716Z,3.17
2018-12-13T11:29:15.632Z,3.83
2018-12-13T11:35:15.018Z,3.10
2018-12-13T11:37:43.193Z,3.13
2018-12-13T11:40:11.231Z,3.47
2018-12-13T11:42:39.264Z,3.30
2018-12-13T11:45:07.501Z,3.73
2018-12-13T11:47:35.573Z,3.03
2018-12-13T11:50:05.102Z,3.30
2018-12-13T11:52:33.169Z,3.60
2018-12-13T11:55:05.017Z,3.40
2018-12-13T11:57:33.189Z,3.83
2018-12-13T12:00:01.282Z,3.87
2018-12-13T12:02:39.373Z,3.93
2018-12-13T12:05:07.452Z,3.93
2018-12-13T12:07:35.518Z,3.93
2018-12-13T12:10:04.296Z,4.10
2018-12-13T12:12:32.492Z,4.17
2018-12-13T12:15:00.544Z,4.47
2018-12-13T12:17:28.749Z,4.30
2018-12-13T12:19:56.806Z,4.67
2018-12-13T12:22:24.851Z,4.10
2018-12-13T12:24:53.037Z,4.03
2018-12-13T12:27:21.164Z,4.63
2018-12-13T12:29:49.283Z,4.10
2018-12-13T12:32:17.438Z,4.70
2018-12-13T12:34:45.380Z,4.40
2018-12-13T12:37:13.505Z,4.17
2018-12-13T12:39:41.553Z,4.70
2018-12-13T12:42:09.600Z,4.53
2018-12-13T12:44:39.565Z,4.43
2018-12-13T12:47:07.742Z,4.80
2018-12-13T12:49:35.789Z,4.40
2018-12-13T12:52:03.789Z,5.00
2018-12-13T12:54:31.863Z,4.83
2018-12-13T12:56:59.929Z,4.70
2018-12-13T12:59:28.121Z,4.27
2018-12-13T13:01:56.372Z,4.50
2018-12-13T13:04:24.355Z,4.50
2018-12-13T13:06:52.324Z,4.87
2018-12-13T13:09:25.060Z,4.27
2018-12-13T13:11:50.318Z,3.40
2018-12-13T13:14:18.378Z,4.33
2018-12-13T13:16:46.560Z,3.30
2018-12-13T13:19:14.632Z,3.60
2018-12-13T13:21:42.596Z,4.57
2018-12-13T13:24:10.877Z,4.40
2018-12-13T13:26:38.939Z,4.47
2018-12-13T13:29:06.910Z,4.73
2018-12-13T13:31:35.084Z,5.00
2018-12-13T13:34:03.171Z,5.03
2018-12-13T13:36:31.233Z,4.73
2018-12-13T13:38:59.232Z,4.40
2018-12-13T13:41:32.256Z,5.37
2018-12-13T13:44:00.356Z,5.47
2018-12-13T13:46:28.329Z,6.00
2018-12-13T13:48:56.297Z,5.13
2018-12-13T13:51:24.301Z,5.00
2018-12-13T13:53:52.308Z,4.90
2018-12-13T13:56:20.290Z,5.27
2018-12-13T13:58:48.331Z,4.33
2018-12-13T14:01:17.293Z,4.90
2018-12-13T14:03:45.334Z,5.53
2018-12-13T14:06:13.470Z,5.10
2018-12-13T14:08:41.525Z,6.13
2018-12-13T14:11:09.790Z,5.70
2018-12-13T14:13:37.920Z,6.13
2018-12-13T14:16:05.951Z,11.07
2018-12-13T14:18:33.976Z,7.13
2018-12-13T14:21:02.025Z,7.27
2018-12-13T14:23:29.981Z,6.97
2018-12-13T14:25:57.993Z,6.47
2018-12-13T14:28:25.978Z,6.00
2018-12-13T14:30:54.018Z,8.67
2018-12-13T14:33:22.002Z,5.40
2018-12-13T14:35:50.224Z,6.27
2018-12-13T14:38:18.190Z,6.67
2018-12-13T14:40:46.225Z,6.73
2018-12-13T14:43:14.275Z,6.00
2018-12-13T14:45:42.273Z,6.60
2018-12-13T14:48:10.229Z,7.20
2018-12-13T14:50:38.212Z,7.00
2018-12-13T14:53:06.177Z,6.77
2018-12-13T14:55:34.124Z,7.47
2018-12-13T14:58:02.225Z,6.00
2018-12-13T15:00:30.184Z,6.87
2018-12-13T15:02:58.165Z,6.53
2018-12-13T15:05:26.280Z,7.03
2018-12-13T15:07:54.236Z,6.90
2018-12-13T15:10:22.196Z,6.73
2018-12-13T15:12:50.248Z,7.20
2018-12-13T15:15:18.248Z,8.30
2018-12-13T15:17:46.354Z,9.70
2018-12-13T15:20:14.573Z,10.17
2018-12-13T15:22:42.525Z,8.50
2018-12-13T15:25:10.600Z,6.93
2018-12-13T15:27:38.753Z,12.87
2018-12-13T15:30:06.877Z,7.47
2018-12-13T15:32:34.927Z,12.07
2018-12-13T15:35:02.970Z,13.97
2018-12-13T15:37:31.033Z,13.43
2018-12-13T15:39:59.160Z,8.53
2018-12-13T15:42:27.229Z,6.63
2018-12-13T15:44:55.268Z,6.67
2018-12-13T15:47:23.333Z,6.20
2018-12-13T15:49:51.393Z,6.73
2018-12-13T15:52:19.426Z,6.20
2018-12-13T15:54:47.482Z,6.30
2018-12-13T15:57:15.613Z,5.97
2018-12-13T15:59:43.573Z,6.03
2018-12-13T16:02:11.601Z,6.20
2018-12-13T16:04:39.703Z,6.87
2018-12-13T16:07:07.808Z,6.00
2018-12-13T16:09:35.865Z,6.97
2018-12-13T16:12:03.919Z,6.87
2018-12-13T16:14:31.865Z,8.10
2018-12-13T16:16:59.954Z,6.87
2018-12-13T16:19:28.072Z,6.63
2018-12-13T16:21:56.112Z,6.43
2018-12-13T16:24:24.098Z,6.57
2018-12-13T16:26:52.084Z,6.40
2018-12-13T16:29:20.034Z,5.67
2018-12-13T16:31:48.033Z,5.97
2018-12-13T16:34:16.133Z,7.03
2018-12-13T16:36:44.101Z,6.50
2018-12-13T16:39:12.064Z,6.70
2018-12-13T16:41:40.169Z,6.37
2018-12-13T16:44:08.124Z,6.53
2018-12-13T16:46:36.093Z,6.93
2018-12-13T16:49:04.095Z,6.60
2018-12-13T16:51:32.122Z,6.50
2018-12-13T16:54:00.103Z,6.23
2018-12-13T16:56:29.345Z,6.67
2018-12-13T16:58:57.740Z,6.60
2018-12-13T17:01:25.813Z,6.27
2018-12-13T17:03:53.807Z,6.60
2018-12-13T17:06:21.793Z,6.70
2018-12-13T17:08:49.859Z,6.97
2018-12-13T17:11:18.002Z,7.27
2018-12-13T17:13:46.062Z,6.30
2018-12-13T17:16:14.016Z,6.37
2018-12-13T17:18:42.082Z,6.70
2018-12-13T17:21:10.020Z,6.47
2018-12-13T17:23:37.963Z,6.63
2018-12-13T17:26:06.113Z,6.73
2018-12-13T17:28:34.113Z,6.10
2018-12-13T17:31:02.056Z,6.03
2018-12-13T17:33:30.036Z,6.37
2018-12-13T17:35:58.057Z,6.63
2018-12-13T17:38:26.019Z,6.47
2018-12-13T17:40:54.093Z,6.20
2018-12-13T17:43:22.158Z,6.30
2018-12-13T17:45:50.108Z,6.43
2018-12-13T17:48:18.241Z,5.60
2018-12-13T17:50:46.276Z,6.13
2018-12-13T17:53:14.236Z,6.23
2018-12-13T17:55:42.310Z,6.43
2018-12-13T17:58:10.267Z,7.20
2018-12-13T18:00:38.279Z,6.70
2018-12-13T18:03:06.268Z,7.17
2018-12-13T18:05:34.221Z,7.23
2018-12-13T18:08:02.253Z,7.33
2018-12-13T18:10:31.168Z,7.07
2018-12-13T18:12:59.227Z,6.70
2018-12-13T18:15:27.309Z,6.90
2018-12-13T18:17:55.365Z,6.93
2018-12-13T18:20:23.467Z,6.07
2018-12-13T18:22:51.526Z,6.97
2018-12-13T18:25:19.501Z,6.73
2018-12-13T18:27:47.563Z,6.63
2018-12-13T18:30:15.593Z,6.13
2018-12-13T18:32:43.665Z,6.40
2018-12-13T18:35:11.776Z,7.20
2018-12-13T18:37:39.772Z,7.03
2018-12-13T18:40:07.984Z,6.47
2018-12-13T18:42:36.075Z,6.73
2018-12-13T18:45:04.269Z,7.37
2018-12-13T18:47:32.313Z,18.50
2018-12-13T18:50:00.376Z,9.57
2018-12-13T18:52:28.361Z,10.30
2018-12-13T18:54:56.557Z,7.40
2018-12-13T18:57:24.517Z,7.00
2018-12-13T18:59:52.504Z,11.20
2018-12-13T19:02:20.592Z,9.93
2018-12-13T19:04:48.561Z,9.70
2018-12-13T19:07:16.523Z,10.97
2018-12-13T19:09:44.516Z,10.57
2018-12-13T19:12:12.489Z,10.83
2018-12-13T19:14:40.455Z,10.00
2018-12-13T19:17:08.441Z,9.43
2018-12-13T19:19:36.609Z,8.30
2018-12-13T19:22:04.586Z,8.50
2018-12-13T19:24:32.648Z,7.20
2018-12-13T19:27:00.611Z,6.10
2018-12-13T19:29:28.573Z,6.20
2018-12-13T19:31:56.551Z,5.83
2018-12-13T19:34:24.520Z,5.70
2018-12-13T19:36:52.549Z,6.00
2018-12-13T19:39:20.635Z,5.20
2018-12-13T19:41:48.567Z,4.90
2018-12-13T19:44:16.512Z,5.00
2018-12-13T19:46:44.500Z,4.90
2018-12-13T19:49:12.496Z,5.23
2018-12-13T19:51:45.440Z,4.53
2018-12-13T19:54:13.392Z,5.17
2018-12-13T19:56:41.388Z,5.27
2018-12-13T19:59:09.466Z,5.27
2018-12-13T20:01:37.530Z,5.40
2018-12-13T20:04:05.482Z,4.87
2018-12-13T20:06:33.466Z,5.37
2018-12-13T20:09:01.504Z,4.83
2018-12-13T20:11:29.472Z,4.77
2018-12-13T20:13:57.542Z,5.23
2018-12-13T20:16:25.642Z,5.07
2018-12-13T20:18:53.594Z,4.33
2018-12-13T20:21:21.733Z,4.27
2018-12-13T20:23:49.770Z,4.50
2018-12-13T20:26:17.708Z,4.37
2018-12-13T20:28:45.762Z,4.30
2018-12-13T20:31:13.807Z,4.00
2018-12-13T20:33:41.770Z,4.00
2018-12-13T20:36:09.749Z,4.93
2018-12-13T20:38:37.784Z,4.40
2018-12-13T20:41:05.749Z,4.20
2018-12-13T20:43:33.740Z,4.80
2018-12-13T20:46:01.692Z,4.20
2018-12-13T20:48:29.640Z,4.50
2018-12-13T20:50:57.655Z,4.30
2018-12-13T20:53:25.682Z,4.50
2018-12-13T20:55:53.734Z,4.07
2018-12-13T20:58:21.729Z,4.23
2018-12-13T21:00:49.713Z,4.33
2018-12-13T21:03:17.765Z,4.23
2018-12-13T21:05:45.758Z,4.77
2018-12-13T21:08:13.712Z,4.77
2018-12-13T21:10:41.660Z,4.50
2018-12-13T21:13:09.741Z,4.17
2018-12-13T21:15:37.676Z,4.50
2018-12-13T21:18:05.720Z,4.33
2018-12-13T21:20:33.802Z,4.13
2018-12-13T21:23:11.773Z,3.93
2018-12-13T21:25:40.253Z,4.60
2018-12-13T21:28:08.280Z,4.03
2018-12-13T21:30:36.244Z,4.40
2018-12-13T21:33:04.201Z,4.40
2018-12-13T21:35:32.260Z,4.47
2018-12-13T21:38:00.240Z,4.60
2018-12-13T21:40:28.240Z,4.30
2018-12-13T21:42:56.207Z,3.93
2018-12-13T21:45:24.160Z,4.00
2018-12-13T21:47:52.120Z,4.00
2018-12-13T21:50:20.165Z,4.33
2018-12-13T21:52:48.117Z,3.73
2018-12-13T21:55:16.097Z,3.93
2018-12-13T21:57:44.053Z,4.73
2018-12-13T22:00:12.149Z,4.43
2018-12-13T22:02:40.124Z,4.07
2018-12-13T22:05:08.124Z,3.27
2018-12-13T22:07:36.096Z,3.07
2018-12-13T22:10:05.448Z,3.37
2018-12-13T22:12:33.405Z,3.37
2018-12-13T22:15:02.686Z,3.20
2018-12-13T22:17:30.901Z,3.60
2018-12-13T22:19:58.851Z,3.33
2018-12-13T22:22:26.868Z,3.57
2018-12-13T22:24:54.942Z,3.67
2018-12-13T22:27:22.896Z,3.33
2018-12-13T22:29:50.841Z,3.63
2018-12-13T22:32:18.916Z,3.83
2018-12-13T22:34:47.018Z,4.30
2018-12-13T22:37:15.009Z,4.30
2018-12-13T22:39:42.974Z,4.10
2018-12-13T22:42:11.056Z,4.77
2018-12-13T22:44:39.019Z,4.50
2018-12-13T22:47:07.096Z,4.03
2018-12-13T22:49:35.049Z,4.63
2018-12-13T22:52:03.010Z,4.30
2018-12-13T22:54:30.984Z,4.13
2018-12-13T22:56:59.023Z,3.97
2018-12-13T22:59:26.964Z,3.90
2018-12-13T23:01:55.082Z,3.80
2018-12-13T23:04:23.161Z,4.43
2018-12-13T23:06:51.100Z,5.33
2018-12-13T23:09:19.110Z,4.63
2018-12-13T23:11:47.057Z,4.87
2018-12-13T23:14:15.000Z,4.50
2018-12-13T23:16:43.042Z,4.83
2018-12-13T23:19:11.080Z,4.67
2018-12-13T23:21:39.040Z,4.70
2018-12-13T23:24:07.109Z,4.50
2018-12-13T23:26:35.063Z,4.77
2018-12-13T23:29:03.157Z,4.30
2018-12-13T23:31:31.256Z,4.87
2018-12-13T23:33:59.301Z,4.70
2018-12-13T23:36:27.249Z,5.07
2018-12-13T23:38:55.228Z,5.10
2018-12-13T23:41:23.302Z,5.07
2018-12-13T23:43:51.345Z,5.63
2018-12-13T23:46:19.346Z,5.47
2018-12-13T23:48:47.361Z,5.67
2018-12-13T23:51:15.383Z,5.50
2018-12-13T23:53:43.366Z,6.20
2018-12-13T23:56:11.412Z,5.80
2018-12-13T23:58:39.487Z,6.87
